createdAt,value
2019-03-21T00:02:01.745Z,12.53
2019-03-21T00:04:33.940Z,15.23
2019-03-21T00:07:06.907Z,13.67
2019-03-21T00:09:39.113Z,13.17
2019-03-21T00:12:11.579Z,16.77
2019-03-21T00:15:10.141Z,18.40
2019-03-21T00:17:46.463Z,14.43
2019-03-21T00:20:18.794Z,14.63
2019-03-21T00:22:50.831Z,17.17
2019-03-21T00:25:24.001Z,18.80
2019-03-21T00:27:56.039Z,14.90
2019-03-21T00:30:27.970Z,15.00
2019-03-21T00:33:03.768Z,12.83
2019-03-21T00:35:35.735Z,13.10
2019-03-21T00:38:07.681Z,11.87
2019-03-21T00:40:43.877Z,15.87
2019-03-21T00:43:15.351Z,20.37
2019-03-21T00:45:47.409Z,12.80
2019-03-21T00:48:21.406Z,10.10
2019-03-21T00:50:53.365Z,16.43
2019-03-21T00:53:25.421Z,15.33
2019-03-21T00:55:57.571Z,14.07
2019-03-21T00:58:36.146Z,14.07
2019-03-21T01:01:08.141Z,11.80
2019-03-21T01:03:40.096Z,17.87
2019-03-21T01:06:12.089Z,10.70
2019-03-21T01:08:44.026Z,17.17
2019-03-21T01:11:16.029Z,13.00
2019-03-21T01:13:52.037Z,14.47
2019-03-21T01:16:24.032Z,12.53
2019-03-21T01:18:56.105Z,11.93
2019-03-21T01:21:28.264Z,13.53
2019-03-21T01:24:00.217Z,13.20
2019-03-21T01:26:32.256Z,15.03
2019-03-21T01:29:04.341Z,15.97
2019-03-21T01:31:36.302Z,11.50
2019-03-21T01:34:08.260Z,17.67
2019-03-21T01:36:40.213Z,12.60
2019-03-21T01:39:12.217Z,13.07
2019-03-21T01:41:44.154Z,16.97
2019-03-21T01:44:16.125Z,16.87
2019-03-21T01:46:48.107Z,17.73
2019-03-21T01:49:20.061Z,12.73
2019-03-21T01:51:52.041Z,13.80
2019-03-21T01:54:24.113Z,17.37
2019-03-21T01:56:56.059Z,13.13
2019-03-21T01:59:28.126Z,13.23
2019-03-21T02:02:02.810Z,14.43
2019-03-21T02:04:34.759Z,15.43
2019-03-21T02:07:06.896Z,16.13
2019-03-21T02:09:38.884Z,11.47
2019-03-21T02:12:12.340Z,13.90
2019-03-21T02:14:52.101Z,14.10
2019-03-21T02:17:18.133Z,11.63
2019-03-21T02:19:50.219Z,9.77
2019-03-21T02:22:22.405Z,12.10
2019-03-21T02:24:54.352Z,14.37
2019-03-21T02:27:26.338Z,12.20
2019-03-21T02:29:58.337Z,13.87
2019-03-21T02:32:30.269Z,12.80
2019-03-21T02:35:02.236Z,14.57
2019-03-21T02:37:34.257Z,16.53
2019-03-21T02:40:07.637Z,10.87
2019-03-21T02:42:39.679Z,13.43
2019-03-21T02:45:12.959Z,12.03
2019-03-21T02:47:44.979Z,13.03
2019-03-21T02:50:20.056Z,14.80
2019-03-21T02:52:52.043Z,10.93
2019-03-21T02:55:24.319Z,14.37
2019-03-21T02:57:56.337Z,12.50
2019-03-21T03:00:28.738Z,12.47
2019-03-21T03:03:01.232Z,14.07
2019-03-21T03:05:33.337Z,12.17
2019-03-21T03:08:06.574Z,16.97
2019-03-21T03:10:41.224Z,11.00
2019-03-21T03:13:18.203Z,11.83
2019-03-21T03:15:50.196Z,13.13
2019-03-21T03:18:27.386Z,12.53
2019-03-21T03:21:00.414Z,15.13
2019-03-21T03:23:32.340Z,14.97
2019-03-21T03:26:04.370Z,16.50
2019-03-21T03:28:36.419Z,15.00
2019-03-21T03:31:13.605Z,19.83
2019-03-21T03:33:45.644Z,14.77
2019-03-21T03:36:21.690Z,17.70
2019-03-21T03:38:53.617Z,14.10
2019-03-21T03:41:25.614Z,13.23
2019-03-21T03:43:57.666Z,16.23
2019-03-21T03:46:29.620Z,16.70
2019-03-21T03:49:01.632Z,16.93
2019-03-21T03:51:33.541Z,12.03
2019-03-21T03:54:05.561Z,12.40
2019-03-21T03:56:37.492Z,14.10
2019-03-21T03:59:09.427Z,12.10
2019-03-21T04:01:41.361Z,11.83
2019-03-21T04:04:13.361Z,13.93
2019-03-21T04:06:45.354Z,17.00
2019-03-21T04:09:17.289Z,14.87
2019-03-21T04:11:49.444Z,13.70
2019-03-21T04:14:21.407Z,12.77
2019-03-21T04:16:53.398Z,15.60
2019-03-21T04:19:25.413Z,18.90
2019-03-21T04:21:57.493Z,14.40
2019-03-21T04:24:30.032Z,14.27
2019-03-21T04:27:02.009Z,14.13
2019-03-21T04:29:34.950Z,17.77
2019-03-21T04:32:07.013Z,13.40
2019-03-21T04:34:39.033Z,17.47
2019-03-21T04:37:12.022Z,14.00
2019-03-21T04:39:43.968Z,16.87
2019-03-21T04:42:16.001Z,16.47
2019-03-21T04:44:48.061Z,13.40
2019-03-21T04:47:21.087Z,18.23
2019-03-21T04:49:53.074Z,19.47
2019-03-21T04:52:25.072Z,18.83
2019-03-21T04:54:57.018Z,19.27
2019-03-21T04:57:29.096Z,21.00
2019-03-21T05:00:07.021Z,15.77
2019-03-21T05:02:39.139Z,13.93
2019-03-21T05:05:11.334Z,19.20
2019-03-21T05:07:43.344Z,14.30
2019-03-21T05:10:16.657Z,16.97
2019-03-21T05:12:48.759Z,15.80
2019-03-21T05:15:23.954Z,17.10
2019-03-21T05:17:57.702Z,18.03
2019-03-21T05:20:30.089Z,16.93
2019-03-21T05:23:02.096Z,23.70
2019-03-21T05:25:34.094Z,18.43
2019-03-21T05:28:06.165Z,16.43
2019-03-21T05:30:41.726Z,18.50
2019-03-21T05:33:15.842Z,16.37
2019-03-21T05:35:47.928Z,15.37
2019-03-21T05:38:20.058Z,21.83
2019-03-21T05:40:53.799Z,16.43
2019-03-21T05:43:29.626Z,16.57
2019-03-21T05:46:01.641Z,19.83
2019-03-21T05:48:33.590Z,18.17
2019-03-21T05:51:16.820Z,25.23
2019-03-21T05:53:49.832Z,17.93
2019-03-21T05:56:23.905Z,21.53
2019-03-21T05:58:56.299Z,26.77
2019-03-21T06:01:28.284Z,17.50
2019-03-21T06:04:00.310Z,15.03
2019-03-21T06:06:45.074Z,15.60
2019-03-21T06:09:20.931Z,17.47
2019-03-21T06:11:56.344Z,17.50
2019-03-21T06:14:32.908Z,17.97
2019-03-21T06:17:05.720Z,17.77
2019-03-21T06:19:47.303Z,15.23
2019-03-21T06:22:39.083Z,22.27
2019-03-21T06:25:52.598Z,19.23
2019-03-21T06:28:24.561Z,22.13
2019-03-21T06:30:56.546Z,18.33
2019-03-21T06:33:28.676Z,17.07
2019-03-21T06:36:00.717Z,19.63
2019-03-21T06:38:32.838Z,19.53
2019-03-21T06:41:04.921Z,20.47
2019-03-21T06:43:36.977Z,19.20
2019-03-21T06:46:09.057Z,18.83
2019-03-21T06:48:41.526Z,18.33
2019-03-21T06:51:15.204Z,19.30
2019-03-21T06:53:47.198Z,20.73
2019-03-21T06:56:19.260Z,24.70
2019-03-21T06:58:52.623Z,21.67
2019-03-21T07:01:24.802Z,17.47
2019-03-21T07:04:06.593Z,21.10
2019-03-21T07:06:30.594Z,22.40
2019-03-21T07:09:05.987Z,26.50
2019-03-21T07:11:38.074Z,18.63
2019-03-21T07:14:10.248Z,18.10
2019-03-21T07:16:42.396Z,24.93
2019-03-21T07:19:14.388Z,26.27
2019-03-21T07:21:46.488Z,22.53
2019-03-21T07:24:18.602Z,19.27
2019-03-21T07:26:54.944Z,21.87
2019-03-21T07:29:26.619Z,19.87
2019-03-21T07:31:58.640Z,21.43
2019-03-21T07:34:30.625Z,21.20
2019-03-21T07:37:02.609Z,21.63
2019-03-21T07:39:34.630Z,22.23
2019-03-21T07:42:06.738Z,25.17
2019-03-21T07:44:41.097Z,19.33
2019-03-21T07:47:13.491Z,22.27
2019-03-21T07:49:45.788Z,20.20
2019-03-21T07:52:17.782Z,24.53
2019-03-21T07:54:49.792Z,24.77
2019-03-21T07:57:24.091Z,21.83
2019-03-21T07:59:56.103Z,20.80
2019-03-21T08:02:28.073Z,20.20
2019-03-21T08:05:00.045Z,21.50
2019-03-21T08:07:31.994Z,30.17
2019-03-21T08:10:04.319Z,24.17
2019-03-21T08:12:36.349Z,25.83
2019-03-21T08:15:09.042Z,26.23
2019-03-21T08:17:41.021Z,28.23
2019-03-21T08:20:15.419Z,22.53
2019-03-21T08:22:48.948Z,26.77
2019-03-21T08:25:25.215Z,25.53
2019-03-21T08:27:57.280Z,25.53
2019-03-21T08:30:43.539Z,22.67
2019-03-21T08:33:15.507Z,28.27
2019-03-21T08:35:47.633Z,27.93
2019-03-21T08:38:25.091Z,24.30
2019-03-21T08:40:57.209Z,22.23
2019-03-21T08:43:29.167Z,22.77
2019-03-21T08:46:01.292Z,25.33
2019-03-21T08:48:33.238Z,25.43
2019-03-21T08:51:08.717Z,26.03
2019-03-21T08:53:39.007Z,27.23
2019-03-21T08:56:11.135Z,22.27
2019-03-21T08:58:43.154Z,25.10
2019-03-21T09:01:15.154Z,23.03
2019-03-21T09:03:48.213Z,24.43
2019-03-21T09:06:20.176Z,26.30
2019-03-21T09:08:52.147Z,20.30
2019-03-21T09:11:24.219Z,24.20
2019-03-21T09:13:57.225Z,24.20
2019-03-21T09:16:29.209Z,19.50
2019-03-21T09:19:01.227Z,24.23
2019-03-21T09:21:33.220Z,22.10
2019-03-21T09:24:05.277Z,19.47
2019-03-21T09:26:37.221Z,19.53
2019-03-21T09:29:09.190Z,22.63
2019-03-21T09:31:41.136Z,20.63
2019-03-21T09:34:13.171Z,22.27
2019-03-21T09:36:45.172Z,23.83
2019-03-21T09:39:17.258Z,20.40
2019-03-21T09:41:49.333Z,20.57
2019-03-21T09:44:28.491Z,21.30
2019-03-21T09:47:00.523Z,19.33
2019-03-21T09:49:32.571Z,21.63
2019-03-21T09:52:04.663Z,18.37
2019-03-21T09:54:36.717Z,20.40
2019-03-21T09:57:08.973Z,19.87
2019-03-21T09:59:41.028Z,20.40
2019-03-21T10:02:15.957Z,19.97
2019-03-21T10:04:47.927Z,23.27
2019-03-21T10:07:19.901Z,19.97
2019-03-21T10:09:51.880Z,21.73
2019-03-21T10:12:23.868Z,25.43
2019-03-21T10:14:55.861Z,23.67
2019-03-21T10:17:27.903Z,16.33
2019-03-21T10:19:59.939Z,17.63
2019-03-21T10:22:31.919Z,19.33
2019-03-21T10:25:04.029Z,16.73
2019-03-21T10:27:35.987Z,18.13
2019-03-21T10:30:08.292Z,17.80
2019-03-21T10:32:40.287Z,17.10
2019-03-21T10:35:12.270Z,20.57
2019-03-21T10:37:46.737Z,16.63
2019-03-21T10:40:18.732Z,14.80
2019-03-21T10:42:50.758Z,18.13
2019-03-21T10:45:23.785Z,18.77
2019-03-21T10:47:55.859Z,18.73
2019-03-21T10:50:32.681Z,18.43
2019-03-21T10:53:05.079Z,15.80
2019-03-21T10:55:37.027Z,15.90
2019-03-21T10:58:09.323Z,14.67
2019-03-21T11:00:41.275Z,15.17
2019-03-21T11:03:13.318Z,16.70
2019-03-21T11:05:45.272Z,13.03
2019-03-21T11:08:18.161Z,15.63
2019-03-21T11:10:50.130Z,16.37
2019-03-21T11:13:22.222Z,16.83
2019-03-21T11:15:54.245Z,15.90
2019-03-21T11:18:35.682Z,15.80
2019-03-21T11:21:06.349Z,16.50
2019-03-21T11:23:38.441Z,14.70
2019-03-21T11:26:10.390Z,15.97
2019-03-21T11:28:42.341Z,14.13
2019-03-21T11:31:14.443Z,16.70
2019-03-21T11:33:46.458Z,13.20
2019-03-21T11:36:18.619Z,18.47
2019-03-21T11:38:50.605Z,14.77
2019-03-21T11:41:22.588Z,15.90
2019-03-21T11:43:54.596Z,13.87
2019-03-21T11:46:26.606Z,12.77
2019-03-21T11:48:58.583Z,13.97
2019-03-21T11:51:30.554Z,17.67
2019-03-21T11:54:02.578Z,12.60
2019-03-21T11:56:34.648Z,11.23
2019-03-21T11:59:06.628Z,13.40
2019-03-21T12:01:38.729Z,11.27
2019-03-21T12:04:10.802Z,15.47
2019-03-21T12:06:42.750Z,12.67
2019-03-21T12:09:17.889Z,15.13
2019-03-21T12:11:49.822Z,11.70
2019-03-21T12:14:24.799Z,12.73
2019-03-21T12:16:58.443Z,10.00
2019-03-21T12:19:30.395Z,14.80
2019-03-21T12:22:02.359Z,14.33
2019-03-21T12:24:35.428Z,14.13
2019-03-21T12:27:07.877Z,14.13
2019-03-21T12:29:39.933Z,10.97
2019-03-21T12:32:11.934Z,13.60
2019-03-21T12:34:45.427Z,17.37
2019-03-21T12:37:17.484Z,17.07
2019-03-21T12:39:49.467Z,15.20
2019-03-21T12:42:21.471Z,17.10
2019-03-21T12:45:14.414Z,15.60
2019-03-21T12:47:46.332Z,15.67
2019-03-21T12:50:18.318Z,18.07
2019-03-21T12:52:50.486Z,19.07
2019-03-21T12:55:22.432Z,19.10
2019-03-21T12:57:54.508Z,20.20
2019-03-21T13:00:43.723Z,15.30
2019-03-21T13:03:15.967Z,14.70
2019-03-21T13:05:47.950Z,16.93
2019-03-21T13:08:21.010Z,17.37
2019-03-21T13:10:53.076Z,16.10
2019-03-21T13:13:25.082Z,17.37
2019-03-21T13:15:57.061Z,16.87
2019-03-21T13:18:29.101Z,15.37
2019-03-21T13:21:01.026Z,14.63
2019-03-21T13:23:33.118Z,14.17
2019-03-21T13:26:05.311Z,16.63
2019-03-21T13:28:37.266Z,18.03
2019-03-21T13:31:09.213Z,11.80
2019-03-21T13:33:41.250Z,15.00
2019-03-21T13:36:13.190Z,20.00
2019-03-21T13:38:45.183Z,14.50
2019-03-21T13:41:17.195Z,14.23
2019-03-21T13:43:49.266Z,12.73
2019-03-21T13:46:21.278Z,13.40
2019-03-21T13:48:53.224Z,15.90
2019-03-21T13:51:25.725Z,13.63
2019-03-21T13:53:57.765Z,16.27
2019-03-21T13:56:37.932Z,13.50
2019-03-21T13:59:05.496Z,16.67
2019-03-21T14:01:37.616Z,14.37
2019-03-21T14:04:09.704Z,13.77
2019-03-21T14:06:41.737Z,15.87
2019-03-21T14:09:15.820Z,15.53
2019-03-21T14:11:47.858Z,14.17
2019-03-21T14:14:21.191Z,18.93
2019-03-21T14:16:53.209Z,16.53
2019-03-21T14:19:25.218Z,15.77
2019-03-21T14:21:57.146Z,13.33
2019-03-21T14:24:29.366Z,18.37
2019-03-21T14:27:01.372Z,14.90
2019-03-21T14:29:33.456Z,16.27
2019-03-21T14:32:07.210Z,15.67
2019-03-21T14:34:42.366Z,14.30
2019-03-21T14:37:14.379Z,12.80
2019-03-21T14:39:46.395Z,13.43
2019-03-21T14:42:18.414Z,12.73
2019-03-21T14:44:52.966Z,15.10
2019-03-21T14:47:35.642Z,13.83
2019-03-21T14:49:58.549Z,16.80
2019-03-21T14:52:30.534Z,14.03
2019-03-21T14:55:02.489Z,12.37
2019-03-21T14:57:37.966Z,12.90
2019-03-21T15:00:12.642Z,14.50
2019-03-21T15:02:44.798Z,13.07
2019-03-21T15:05:17.222Z,13.97
2019-03-21T15:07:49.351Z,14.37
2019-03-21T15:10:21.355Z,15.53
2019-03-21T15:12:53.311Z,14.40
2019-03-21T15:15:26.714Z,16.77
2019-03-21T15:18:01.421Z,13.23
2019-03-21T15:20:33.435Z,16.47
2019-03-21T15:23:05.426Z,18.20
2019-03-21T15:25:37.583Z,17.27
2019-03-21T15:28:09.674Z,15.80
2019-03-21T15:30:41.678Z,16.90
2019-03-21T15:33:13.603Z,18.87
2019-03-21T15:35:45.654Z,20.60
2019-03-21T15:38:17.663Z,16.33
2019-03-21T15:40:49.815Z,17.53
2019-03-21T15:43:21.791Z,15.70
2019-03-21T15:46:04.061Z,14.33
2019-03-21T15:48:36.042Z,14.47
2019-03-21T15:51:08.224Z,16.00
2019-03-21T15:53:51.967Z,13.03
2019-03-21T15:56:13.910Z,16.57
2019-03-21T15:58:45.972Z,14.00
2019-03-21T16:01:17.928Z,16.43
2019-03-21T16:03:50.026Z,20.03
2019-03-21T16:06:22.217Z,25.87
2019-03-21T16:08:54.405Z,21.67
2019-03-21T16:11:26.506Z,20.07
2019-03-21T16:13:58.871Z,23.63
2019-03-21T16:16:30.967Z,21.07
2019-03-21T16:19:02.993Z,22.27
2019-03-21T16:21:35.034Z,20.17
2019-03-21T16:24:07.281Z,18.47
2019-03-21T16:26:39.415Z,21.47
2019-03-21T16:29:11.462Z,19.63
2019-03-21T16:31:44.435Z,21.20
2019-03-21T16:34:16.367Z,22.80
2019-03-21T16:36:48.474Z,18.17
2019-03-21T16:39:20.523Z,20.03
2019-03-21T16:41:52.505Z,17.90
2019-03-21T16:44:24.539Z,20.87
2019-03-21T16:47:02.859Z,26.07
2019-03-21T16:49:34.908Z,19.07
2019-03-21T16:52:08.377Z,19.70
2019-03-21T16:54:42.023Z,25.10
2019-03-21T16:57:16.536Z,19.30
2019-03-21T16:59:48.635Z,22.87
2019-03-21T17:02:21.209Z,22.93
2019-03-21T17:04:53.548Z,19.97
2019-03-21T17:07:25.591Z,23.27
2019-03-21T17:10:02.869Z,21.43
2019-03-21T17:12:37.164Z,17.63
2019-03-21T17:15:09.769Z,20.77
2019-03-21T17:17:41.818Z,18.73
2019-03-21T17:20:14.175Z,23.70
2019-03-21T17:22:46.146Z,21.83
2019-03-21T17:25:18.095Z,20.93
2019-03-21T17:27:54.801Z,24.40
2019-03-21T17:30:26.320Z,19.10
2019-03-21T17:32:58.341Z,18.93
2019-03-21T17:35:30.504Z,18.63
2019-03-21T17:38:02.504Z,19.97
2019-03-21T17:40:36.037Z,19.77
2019-03-21T17:43:08.135Z,21.87
2019-03-21T17:45:40.122Z,24.60
2019-03-21T17:48:12.180Z,23.33
2019-03-21T17:50:45.367Z,27.47
2019-03-21T17:53:18.604Z,26.83
2019-03-21T17:55:50.658Z,24.50
2019-03-21T17:58:22.656Z,18.10
2019-03-21T18:00:54.705Z,21.00
2019-03-21T18:03:26.727Z,18.53
2019-03-21T18:06:09.670Z,26.50
2019-03-21T18:08:42.077Z,18.97
2019-03-21T18:11:14.716Z,20.97
2019-03-21T18:13:46.941Z,24.63
2019-03-21T18:16:19.110Z,23.80
2019-03-21T18:18:52.362Z,21.17
2019-03-21T18:21:24.823Z,20.33
2019-03-21T18:23:57.039Z,20.90
2019-03-21T18:26:29.140Z,18.93
2019-03-21T18:29:04.127Z,25.23
2019-03-21T18:31:37.230Z,19.70
2019-03-21T18:34:09.233Z,20.53
2019-03-21T18:36:41.300Z,22.80
2019-03-21T18:39:14.399Z,20.43
2019-03-21T18:41:46.611Z,20.83
2019-03-21T18:44:18.672Z,19.03
2019-03-21T18:46:50.704Z,19.90
2019-03-21T18:49:22.713Z,21.63
2019-03-21T18:51:54.703Z,21.97
2019-03-21T18:54:26.954Z,21.87
2019-03-21T18:56:59.112Z,24.27
2019-03-21T18:59:31.158Z,20.10
2019-03-21T19:02:03.238Z,22.13
2019-03-21T19:04:35.257Z,23.27
2019-03-21T19:07:07.425Z,22.23
2019-03-21T19:09:39.439Z,22.13
2019-03-21T19:12:11.372Z,20.70
2019-03-21T19:14:43.380Z,17.10
2019-03-21T19:17:15.783Z,21.37
2019-03-21T19:19:47.907Z,22.37
2019-03-21T19:22:19.863Z,19.67
2019-03-21T19:24:57.628Z,19.57
2019-03-21T19:27:31.301Z,18.73
2019-03-21T19:30:07.242Z,24.13
2019-03-21T19:32:39.401Z,20.73
2019-03-21T19:35:12.074Z,21.57
2019-03-21T19:37:46.897Z,22.70
2019-03-21T19:40:19.526Z,24.90
2019-03-21T19:42:52.729Z,24.23
2019-03-21T19:45:24.696Z,24.83
2019-03-21T19:47:58.364Z,21.73
2019-03-21T19:50:32.640Z,25.30
2019-03-21T19:53:06.291Z,22.67
2019-03-21T19:55:42.430Z,29.50
2019-03-21T19:58:14.420Z,25.60
2019-03-21T20:00:57.398Z,24.63
2019-03-21T20:03:29.472Z,21.80
2019-03-21T20:06:03.481Z,26.47
2019-03-21T20:08:35.581Z,23.27
2019-03-21T20:11:07.724Z,25.67
2019-03-21T20:13:42.975Z,26.60
2019-03-21T20:16:14.964Z,23.70
2019-03-21T20:18:47.129Z,24.63
2019-03-21T20:21:19.327Z,28.60
2019-03-21T20:23:51.513Z,32.07
2019-03-21T20:26:25.577Z,26.13
2019-03-21T20:28:57.413Z,30.30
2019-03-21T20:31:29.462Z,25.47
2019-03-21T20:34:01.487Z,29.30
2019-03-21T20:36:34.649Z,28.47
2019-03-21T20:39:08.398Z,27.97
2019-03-21T20:41:40.876Z,27.67
2019-03-21T20:44:15.478Z,27.97
2019-03-21T20:46:46.476Z,28.03
2019-03-21T20:49:18.480Z,30.33
2019-03-21T20:51:52.184Z,27.77
2019-03-21T20:54:24.226Z,28.67
2019-03-21T20:56:58.632Z,30.83
2019-03-21T20:59:30.660Z,29.87
2019-03-21T21:02:03.257Z,26.60
2019-03-21T21:04:35.499Z,25.93
2019-03-21T21:07:07.772Z,32.83
2019-03-21T21:09:39.818Z,30.07
2019-03-21T21:12:12.018Z,29.67
2019-03-21T21:14:44.195Z,27.43
2019-03-21T21:17:16.195Z,29.73
2019-03-21T21:19:48.338Z,28.43
2019-03-21T21:22:20.393Z,26.93
2019-03-21T21:24:57.251Z,25.30
2019-03-21T21:27:32.264Z,27.23
2019-03-21T21:30:05.324Z,33.80
2019-03-21T21:32:41.858Z,31.77
2019-03-21T21:35:15.651Z,30.93
2019-03-21T21:37:48.808Z,25.47
2019-03-21T21:40:21.271Z,26.03
2019-03-21T21:42:53.281Z,29.97
2019-03-21T21:45:27.371Z,27.33
2019-03-21T21:47:59.439Z,27.40
2019-03-21T21:50:34.435Z,28.00
2019-03-21T21:53:06.403Z,25.03
2019-03-21T21:55:38.523Z,29.27
2019-03-21T21:58:10.578Z,29.03
2019-03-21T22:00:42.599Z,26.00
2019-03-21T22:03:14.647Z,27.43
2019-03-21T22:05:50.656Z,33.23
2019-03-21T22:08:22.645Z,32.73
2019-03-21T22:10:54.729Z,33.43
2019-03-21T22:13:26.709Z,29.43
2019-03-21T22:15:59.814Z,27.43
2019-03-21T22:18:31.925Z,28.60
2019-03-21T22:21:09.428Z,31.57
2019-03-21T22:23:44.308Z,29.33
2019-03-21T22:26:29.124Z,34.57
2019-03-21T22:28:53.603Z,30.67
2019-03-21T22:31:25.625Z,31.03
2019-03-21T22:33:57.585Z,31.73
2019-03-21T22:36:29.591Z,30.33
2019-03-21T22:39:07.207Z,31.03
2019-03-21T22:41:39.312Z,28.33
2019-03-21T22:44:13.587Z,29.90
2019-03-21T22:46:45.591Z,29.47
2019-03-21T22:49:17.783Z,27.90
2019-03-21T22:51:49.802Z,28.70
2019-03-21T22:54:21.765Z,31.13
2019-03-21T22:56:56.182Z,25.70
2019-03-21T22:59:29.714Z,29.83
2019-03-21T23:02:01.944Z,28.73
2019-03-21T23:04:36.243Z,31.23
2019-03-21T23:07:08.339Z,29.47
2019-03-21T23:09:40.311Z,31.60
2019-03-21T23:12:12.299Z,30.40
2019-03-21T23:14:44.522Z,32.77
2019-03-21T23:17:16.501Z,32.03
2019-03-21T23:19:48.461Z,30.10
2019-03-21T23:22:20.467Z,33.47
2019-03-21T23:24:52.443Z,35.27
2019-03-21T23:27:25.499Z,33.93
2019-03-21T23:29:57.685Z,36.17
2019-03-21T23:32:29.796Z,38.13
2019-03-21T23:35:01.811Z,35.80
2019-03-21T23:37:34.853Z,36.27
2019-03-21T23:40:07.790Z,35.23
2019-03-21T23:42:40.090Z,37.27
2019-03-21T23:45:12.781Z,36.40
2019-03-21T23:47:44.972Z,33.23
2019-03-21T23:50:17.050Z,39.93
2019-03-21T23:52:49.072Z,33.63
2019-03-21T23:55:21.192Z,37.47
2019-03-21T23:58:01.906Z,38.83
